createdAt,value
2022-09-28T00:00:16.179Z,99242.97
2022-09-28T00:05:40.149Z,99240.97
2022-09-28T00:11:06.185Z,99245.66
2022-09-28T00:16:35.149Z,99248.44
2022-09-28T00:21:59.311Z,99226.53
2022-09-28T00:27:24.005Z,99238.06
2022-09-28T00:32:50.204Z,99238.88
2022-09-28T00:38:16.821Z,99245.41
2022-09-28T00:43:43.268Z,99230.31
2022-09-28T00:49:16.605Z,99220.72
2022-09-28T00:54:43.773Z,99206.75
2022-09-28T01:00:10.068Z,99211.66
2022-09-28T01:05:37.912Z,99224.81
2022-09-28T01:11:04.304Z,99224.81
2022-09-28T01:16:39.190Z,99211.13
2022-09-28T01:22:50.915Z,99224.00
2022-09-28T01:28:20.401Z,99215.78
2022-09-28T01:33:49.250Z,99222.38
2022-09-28T01:39:17.813Z,99219.66
2022-09-28T01:44:47.772Z,99209.28
2022-09-28T01:50:16.681Z,99224.91
2022-09-28T01:55:47.111Z,99218.84
2022-09-28T02:01:22.981Z,99239.69
2022-09-28T02:06:54.265Z,99250.63
2022-09-28T02:12:29.039Z,99254.72
2022-09-28T02:17:56.086Z,99249.25
2022-09-28T02:23:23.617Z,99249.53
2022-09-28T02:28:47.365Z,99259.91
2022-09-28T02:34:13.549Z,99259.34
2022-09-28T02:39:38.491Z,99248.91
2022-09-28T02:45:16.936Z,99259.31
2022-09-28T02:50:52.658Z,99248.09
2022-09-28T02:56:34.092Z,99251.09
2022-09-28T03:02:04.813Z,99242.88
2022-09-28T03:07:37.338Z,99259.78
2022-09-28T03:13:02.907Z,99253.50
2022-09-28T03:18:27.484Z,99254.69
2022-09-28T03:23:53.558Z,99261.59
2022-09-28T03:29:20.248Z,99267.63
2022-09-28T03:34:51.977Z,99273.69
2022-09-28T03:40:18.232Z,99270.44
2022-09-28T03:45:44.125Z,99263.84
2022-09-28T03:51:12.046Z,99261.66
2022-09-28T03:56:37.576Z,99258.38
2022-09-28T04:02:01.869Z,99268.69
2022-09-28T04:07:30.209Z,99270.28
2022-09-28T04:12:58.312Z,99269.75
2022-09-28T04:18:22.557Z,99279.06
2022-09-28T04:24:05.763Z,99278.59
2022-09-28T04:29:31.224Z,99301.06
2022-09-28T04:34:56.768Z,99306.25
2022-09-28T04:40:21.654Z,99312.03
2022-09-28T04:45:49.220Z,99306.03
2022-09-28T04:51:18.158Z,99303.28
2022-09-28T04:56:42.333Z,99291.75
2022-09-28T05:02:08.028Z,99283.88
2022-09-28T05:07:35.616Z,99293.19
2022-09-28T05:13:02.941Z,99305.50
2022-09-28T05:18:28.673Z,99322.44
2022-09-28T05:24:01.416Z,99316.16
2022-09-28T05:29:30.093Z,99314.22
2022-09-28T05:35:17.011Z,99317.03
2022-09-28T05:40:45.089Z,99332.34
2022-09-28T05:46:11.730Z,99318.06
2022-09-28T05:51:39.277Z,99325.19
2022-09-28T05:57:03.309Z,99330.69
2022-09-28T06:02:27.635Z,99318.13
2022-09-28T06:07:54.073Z,99325.50
2022-09-28T06:13:18.229Z,99331.88
2022-09-28T06:18:43.610Z,99330.31
2022-09-28T06:24:12.449Z,99325.47
2022-09-28T06:29:38.066Z,99323.53
2022-09-28T06:35:02.050Z,99339.91
2022-09-28T06:40:29.314Z,99341.53
2022-09-28T06:45:54.857Z,99344.03
2022-09-28T06:51:35.028Z,99347.84
2022-09-28T06:57:26.873Z,99361.22
2022-09-28T07:02:50.699Z,99359.00
2022-09-28T07:08:35.255Z,99357.09
2022-09-28T07:14:24.397Z,99354.63
2022-09-28T07:19:53.676Z,99361.41
2022-09-28T07:25:23.931Z,99361.94
2022-09-28T07:31:04.717Z,99364.16
2022-09-28T07:36:44.298Z,99381.03
2022-09-28T07:42:09.465Z,99375.53
2022-09-28T07:47:35.346Z,99363.88
2022-09-28T07:53:14.775Z,99363.97
2022-09-28T07:58:54.801Z,99361.88
2022-09-28T08:04:40.946Z,99355.09
2022-09-28T08:10:06.609Z,99360.44
2022-09-28T08:15:43.358Z,99362.75
2022-09-28T08:21:41.385Z,99361.19
2022-09-28T08:27:07.251Z,99358.53
2022-09-28T08:32:32.791Z,99352.66
2022-09-28T08:38:18.423Z,99350.50
2022-09-28T08:44:13.953Z,99348.38
2022-09-28T08:49:58.294Z,99352.34
2022-09-28T08:56:00.161Z,99352.66
2022-09-28T09:01:31.197Z,99338.19
2022-09-28T09:07:14.007Z,99339.38
2022-09-28T09:18:34.444Z,99338.69
2022-09-28T09:24:27.364Z,99331.03
2022-09-28T09:30:06.252Z,99339.00
2022-09-28T09:36:00.193Z,99331.16
2022-09-28T09:42:08.297Z,99319.78
2022-09-28T09:48:04.407Z,99328.84
2022-09-28T09:53:37.708Z,99329.28
2022-09-28T09:59:12.777Z,99326.41
2022-09-28T10:05:04.017Z,99324.22
2022-09-28T10:10:37.870Z,99327.09
2022-09-28T10:16:08.922Z,99337.81
2022-09-28T10:21:44.683Z,99338.84
2022-09-28T10:27:22.640Z,99341.91
2022-09-28T10:32:48.861Z,99341.34
2022-09-28T10:38:19.580Z,99341.72
2022-09-28T10:44:06.292Z,99339.66
2022-09-28T10:49:54.703Z,99336.16
2022-09-28T10:55:32.963Z,99339.28
2022-09-28T11:01:03.389Z,99329.22
2022-09-28T11:06:31.167Z,99331.69
2022-09-28T11:11:58.678Z,99336.16
2022-09-28T11:17:28.732Z,99346.59
2022-09-28T11:22:54.908Z,99344.63
2022-09-28T11:28:27.236Z,99346.03
2022-09-28T11:34:02.123Z,99346.53
2022-09-28T11:39:33.771Z,99344.31
2022-09-28T11:45:11.093Z,99354.81
2022-09-28T11:50:46.699Z,99338.31
2022-09-28T11:56:19.839Z,99342.97
2022-09-28T12:01:50.473Z,99344.31
2022-09-28T12:07:33.607Z,99356.84
2022-09-28T12:13:05.094Z,99349.19
2022-09-28T12:18:38.945Z,99347.06
2022-09-28T12:24:08.758Z,99345.00
2022-09-28T12:29:39.148Z,99364.09
2022-09-28T12:35:12.988Z,99360.47
2022-09-28T12:40:45.467Z,99355.97
2022-09-28T12:46:42.404Z,99355.16
2022-09-28T12:52:25.183Z,99375.34
2022-09-28T12:58:00.758Z,99375.50
2022-09-28T13:04:02.185Z,99377.69
2022-09-28T13:09:29.042Z,99369.75
2022-09-28T13:15:17.370Z,99384.09
2022-09-28T13:20:57.674Z,99379.69
2022-09-28T13:26:29.158Z,99383.78
2022-09-28T13:31:57.178Z,99391.50
2022-09-28T13:37:25.643Z,99398.06
2022-09-28T13:43:06.788Z,99397.25
2022-09-28T13:48:44.465Z,99412.69
2022-09-28T13:54:27.416Z,99421.41
2022-09-28T14:00:02.621Z,99428.75
2022-09-28T14:05:46.940Z,99429.44
2022-09-28T14:11:43.214Z,99436.53
2022-09-28T14:17:50.487Z,99435.25
2022-09-28T14:23:47.818Z,99435.13
2022-09-28T14:29:28.420Z,99445.25
2022-09-28T14:35:02.337Z,99441.00
2022-09-28T14:41:02.452Z,99442.19
2022-09-28T14:46:38.446Z,99448.91
2022-09-28T14:52:04.881Z,99445.13
2022-09-28T14:57:33.734Z,99439.41
2022-09-28T15:03:03.571Z,99441.44
2022-09-28T15:08:40.109Z,99437.78
2022-09-28T15:14:10.701Z,99442.41
2022-09-28T15:19:44.919Z,99460.03
2022-09-28T15:25:19.814Z,99468.91
2022-09-28T15:30:44.321Z,99467.34
2022-09-28T15:36:11.446Z,99477.00
2022-09-28T15:41:37.640Z,99492.13
2022-09-28T15:47:10.836Z,99494.09
2022-09-28T15:52:39.912Z,99508.13
2022-09-28T15:58:18.275Z,99507.16
2022-09-28T16:03:42.798Z,99511.00
2022-09-28T16:09:26.663Z,99520.41
2022-09-28T16:14:55.896Z,99522.66
2022-09-28T16:20:27.694Z,99527.63
2022-09-28T16:25:56.280Z,99528.22
2022-09-28T16:31:30.031Z,99528.84
2022-09-28T16:36:54.712Z,99542.53
2022-09-28T16:42:21.865Z,99542.53
2022-09-28T16:47:53.037Z,99551.81
2022-09-28T16:53:36.270Z,99570.44
2022-09-28T16:59:01.210Z,99576.78
2022-09-28T17:04:27.910Z,99575.97
2022-09-28T17:09:53.067Z,99584.72
2022-09-28T17:15:19.539Z,99588.28
2022-09-28T17:20:48.212Z,99584.75
2022-09-28T17:26:20.029Z,99592.41
2022-09-28T17:31:47.059Z,99594.31
2022-09-28T17:37:15.584Z,99596.75
2022-09-28T17:42:40.557Z,99600.56
2022-09-28T17:48:05.447Z,99600.56
2022-09-28T17:53:33.353Z,99604.41
2022-09-28T17:58:59.857Z,99605.50
2022-09-28T18:04:47.546Z,99612.03
2022-09-28T18:10:14.563Z,99609.03
2022-09-28T18:15:39.119Z,99610.38
2022-09-28T18:21:04.355Z,99601.91
2022-09-28T18:26:29.851Z,99616.38
2022-09-28T18:31:54.039Z,99622.38
2022-09-28T18:37:18.805Z,99632.53
2022-09-28T18:42:44.237Z,99627.84
2022-09-28T18:48:08.236Z,99628.94
2022-09-28T18:53:34.805Z,99626.50
2022-09-28T18:59:01.848Z,99642.66
2022-09-28T19:04:27.748Z,99642.66
2022-09-28T19:09:53.292Z,99653.03
2022-09-28T19:15:22.610Z,99656.31
2022-09-28T19:20:48.431Z,99654.63
2022-09-28T19:26:15.956Z,99657.38
2022-09-28T19:31:43.307Z,99665.81
2022-09-28T19:37:08.805Z,99666.59
2022-09-28T19:42:33.244Z,99667.16
2022-09-28T19:47:59.520Z,99684.09
2022-09-28T19:53:26.007Z,99691.72
2022-09-28T19:58:50.245Z,99698.81
2022-09-28T20:04:15.685Z,99698.81
2022-09-28T20:09:40.056Z,99707.00
2022-09-28T20:15:06.794Z,99705.09
2022-09-28T20:20:32.065Z,99708.66
2022-09-28T20:25:57.653Z,99717.13
2022-09-28T20:31:23.349Z,99705.38
2022-09-28T20:36:48.985Z,99715.47
2022-09-28T20:42:15.473Z,99706.47
2022-09-28T20:47:40.447Z,99716.84
2022-09-28T20:53:06.357Z,99724.69
2022-09-28T20:58:31.053Z,99712.94
2022-09-28T21:03:58.089Z,99727.69
2022-09-28T21:09:24.958Z,99730.16
2022-09-28T21:14:49.618Z,99720.00
2022-09-28T21:20:14.376Z,99727.66
2022-09-28T21:25:40.111Z,99739.97
2022-09-28T21:31:07.741Z,99743.22
2022-09-28T21:36:33.728Z,99755.75
2022-09-28T21:42:00.888Z,99770.41
2022-09-28T21:47:26.401Z,99762.75
2022-09-28T21:52:51.924Z,99763.28
2022-09-28T21:58:23.191Z,99775.25
2022-09-28T22:03:50.492Z,99778.34
2022-09-28T22:09:15.517Z,99790.22
2022-09-28T22:14:42.893Z,99791.31
2022-09-28T22:20:08.073Z,99802.22
2022-09-28T22:25:31.996Z,99809.53
2022-09-28T22:30:58.203Z,99815.47
2022-09-28T22:36:22.737Z,99819.78
2022-09-28T22:41:46.721Z,99835.28
2022-09-28T22:47:12.203Z,99840.69
2022-09-28T22:52:36.405Z,99845.56
2022-09-28T22:58:00.678Z,99847.78
2022-09-28T23:03:26.267Z,99855.19
2022-09-28T23:08:53.219Z,99850.03
2022-09-28T23:14:17.970Z,99850.31
2022-09-28T23:19:43.929Z,99852.19
2022-09-28T23:25:13.363Z,99855.50
2022-09-28T23:30:37.945Z,99855.50
2022-09-28T23:36:03.976Z,99863.69
2022-09-28T23:41:28.160Z,99859.63
2022-09-28T23:46:52.702Z,99871.91
2022-09-28T23:52:18.425Z,99864.31
2022-09-28T23:57:44.056Z,99878.28
